Time;durP1;ratioP1;P1;durP2;ratioP2;P2;SDS_P1;SDS_P2;PMS_P1;PMS_P2;Temp;Humidity;BMP_temperature;BMP_pressure;BME280_temperature;BME280_humidity;BME280_pressure;Samples;Min_cycle;Max_cycle;Signal;HPM_P1;HPM_P2
2022/04/20 00:01:55;;;;;;;8.90;5.73;;;;;;;4.75;100.00;101239.72;7391181;19;20416;-47
2022/04/20 00:04:25;;;;;;;15.57;7.07;;;;;;;4.71;100.00;101234.38;7395924;19;20421;-46
2022/04/20 00:06:55;;;;;;;7.53;5.30;;;;;;;4.65;100.00;101230.47;7387752;19;20961;-44
2022/04/20 00:09:24;;;;;;;14.40;5.73;;;;;;;4.61;100.00;101233.63;7393556;19;20431;-45
2022/04/20 00:11:54;;;;;;;7.37;4.67;;;;;;;4.65;100.00;101228.81;7390463;19;20407;-47
2022/04/20 00:14:24;;;;;;;11.70;5.50;;;;;;;4.71;100.00;101226.72;7396597;19;20743;-48
2022/04/20 00:16:56;;;;;;;9.40;5.50;;;;;;;4.73;100.00;101225.16;7390416;19;20941;-50
2022/04/20 00:19:25;;;;;;;11.83;5.40;;;;;;;4.65;100.00;101220.25;7395261;19;20419;-46
2022/04/20 00:21:55;;;;;;;10.83;5.20;;;;;;;4.68;100.00;101215.38;7390586;19;20397;-45
2022/04/20 00:24:24;;;;;;;11.73;5.83;;;;;;;4.67;100.00;101219.59;7396421;19;20388;-46
2022/04/20 00:26:54;;;;;;;13.57;6.43;;;;;;;4.69;100.00;101215.50;7383472;19;20426;-47
2022/04/20 00:29:23;;;;;;;10.33;5.37;;;;;;;4.64;100.00;101211.72;7394228;19;20411;-46
2022/04/20 00:31:55;;;;;;;9.67;5.20;;;;;;;4.61;100.00;101216.59;7362316;19;20382;-45
2022/04/20 00:34:25;;;;;;;9.97;5.93;;;;;;;4.58;100.00;101219.81;7395046;19;20379;-46
2022/04/20 00:36:56;;;;;;;8.57;5.07;;;;;;;4.56;100.00;101212.84;7380506;19;20434;-46
2022/04/20 00:39:25;;;;;;;11.80;6.00;;;;;;;4.55;100.00;101214.50;7393145;19;20770;-48
2022/04/20 00:41:55;;;;;;;9.97;5.67;;;;;;;4.56;100.00;101208.59;7386880;19;20489;-47
2022/04/20 00:44:26;;;;;;;9.37;5.20;;;;;;;4.56;100.00;101210.28;7395342;19;20479;-44
2022/04/20 00:46:58;;;;;;;10.20;5.10;;;;;;;4.55;100.00;101203.34;7362269;19;20397;-45
2022/04/20 00:49:28;;;;;;;7.03;4.73;;;;;;;4.57;100.00;101206.94;7392508;19;20395;-49
2022/04/20 00:51:59;;;;;;;8.53;4.70;;;;;;;4.53;100.00;101199.81;7386253;19;20421;-47
2022/04/20 00:54:28;;;;;;;10.37;5.60;;;;;;;4.52;100.00;101204.03;7395059;19;20400;-46
2022/04/20 00:56:58;;;;;;;8.80;4.97;;;;;;;4.44;100.00;101206.03;7384679;19;20422;-46
2022/04/20 00:59:31;;;;;;;21.63;11.00;;;;;;;4.43;100.00;101195.69;7397090;19;20409;-47
2022/04/20 01:02:03;;;;;;;11.53;5.33;;;;;;;4.37;100.00;101201.25;7389109;19;20742;-46
2022/04/20 01:04:33;;;;;;;10.33;5.00;;;;;;;4.28;100.00;101198.91;7394740;19;20388;-47
2022/04/20 01:07:02;;;;;;;11.67;6.30;;;;;;;4.26;100.00;101197.00;7388963;19;20788;-45
2022/04/20 01:09:32;;;;;;;18.13;7.97;;;;;;;4.28;100.00;101192.88;7392964;19;20398;-44
2022/04/20 01:12:02;;;;;;;13.63;7.47;;;;;;;4.32;100.00;101189.78;7388883;19;20425;-49
2022/04/20 01:14:31;;;;;;;12.43;6.60;;;;;;;4.29;100.00;101189.56;7393544;19;20404;-46
2022/04/20 01:17:03;;;;;;;12.23;4.80;;;;;;;4.32;100.00;101197.47;7382369;19;20433;-44
2022/04/20 01:19:38;;;;;;;11.37;5.37;;;;;;;4.30;100.00;101191.31;7391903;19;20412;-46
2022/04/20 01:22:11;;;;;;;9.17;5.20;;;;;;;4.31;100.00;101199.13;7385900;19;20425;-48
2022/04/20 01:24:41;;;;;;;10.90;5.70;;;;;;;4.31;100.00;101198.25;7394565;19;20395;-45
2022/04/20 01:27:11;;;;;;;15.27;5.67;;;;;;;4.18;100.00;101192.22;7377122;19;20417;-44
2022/04/20 01:29:41;;;;;;;10.03;5.20;;;;;;;4.17;100.00;101198.06;7388980;19;20397;-45
2022/04/20 01:32:11;;;;;;;9.40;4.57;;;;;;;4.13;100.00;101193.53;7383641;19;21059;-44
2022/04/20 01:34:40;;;;;;;8.53;5.23;;;;;;;4.10;100.00;101189.88;7387590;19;20399;-48
2022/04/20 01:37:13;;;;;;;9.43;4.20;;;;;;;4.07;100.00;101182.88;7388616;19;20415;-47
2022/04/20 01:39:45;;;;;;;9.80;5.30;;;;;;;4.04;100.00;101182.63;7392500;19;20510;-46
2022/04/20 01:42:15;;;;;;;10.20;5.83;;;;;;;4.07;100.00;101181.97;7386189;19;20438;-45
2022/04/20 01:44:44;;;;;;;12.17;5.00;;;;;;;4.08;100.00;101184.63;7393778;19;20375;-43
2022/04/20 01:47:14;;;;;;;8.83;4.60;;;;;;;4.05;100.00;101181.84;7387992;19;20778;-48
2022/04/20 01:49:43;;;;;;;14.70;5.07;;;;;;;4.06;100.00;101196.41;7390971;19;20427;-46
2022/04/20 01:52:15;;;;;;;6.70;4.07;;;;;;;4.05;100.00;101192.06;7378334;19;20415;-46
2022/04/20 01:54:45;;;;;;;12.67;5.50;;;;;;;4.07;100.00;101180.31;7393941;19;20917;-46
2022/04/20 01:57:14;;;;;;;10.33;4.40;;;;;;;4.10;100.00;101184.75;7387839;19;20490;-46
2022/04/20 01:59:44;;;;;;;8.43;4.80;;;;;;;4.06;100.00;101196.41;7391245;19;20445;-45
2022/04/20 02:04:56;;;;;;;9.07;5.23;;;;;;;4.01;100.00;101193.50;7392263;19;20393;-47
2022/04/20 02:07:28;;;;;;;12.67;5.07;;;;;;;4.02;100.00;101186.72;7385882;19;20410;-44
2022/04/20 02:09:58;;;;;;;8.30;4.27;;;;;;;4.05;100.00;101179.28;7390564;19;20398;-45
2022/04/20 02:12:27;;;;;;;12.93;5.47;;;;;;;3.98;100.00;101183.06;7385929;19;20963;-45
2022/04/20 02:14:57;;;;;;;8.43;4.70;;;;;;;4.06;100.00;101183.63;7393006;19;20397;-50
2022/04/20 02:17:26;;;;;;;10.80;4.90;;;;;;;4.04;100.00;101182.63;7386144;19;20943;-44
2022/04/20 02:19:59;;;;;;;12.03;4.50;;;;;;;3.92;100.00;101180.03;7391213;19;20486;-44
2022/04/20 02:22:31;;;;;;;13.37;5.37;;;;;;;3.95;100.00;101182.81;7385440;19;20413;-47
2022/04/20 02:25:01;;;;;;;7.90;4.80;;;;;;;3.86;100.00;101177.03;7394077;19;20379;-46
2022/04/20 02:27:31;;;;;;;6.93;4.80;;;;;;;3.84;100.00;101182.00;7382530;19;20638;-45
2022/04/20 02:30:00;;;;;;;10.13;3.90;;;;;;;3.81;100.00;101174.13;7390693;19;20423;-47
2022/04/20 02:32:30;;;;;;;8.90;5.10;;;;;;;3.83;100.00;101172.56;7386794;19;20755;-45
2022/04/20 02:35:00;;;;;;;9.27;4.67;;;;;;;3.71;100.00;101181.84;7392663;19;20398;-45
2022/04/20 02:37:32;;;;;;;10.23;5.30;;;;;;;3.71;100.00;101171.63;7385379;19;20422;-45
2022/04/20 02:40:01;;;;;;;11.10;5.37;;;;;;;3.56;100.00;101177.34;7390420;19;20423;-48
2022/04/20 02:42:30;;;;;;;9.53;4.83;;;;;;;3.68;100.00;101177.41;7386270;19;20945;-45
2022/04/20 02:45:00;;;;;;;8.43;5.03;;;;;;;3.60;100.00;101178.47;7391460;19;20403;-48
2022/04/20 02:47:30;;;;;;;8.20;4.60;;;;;;;3.51;100.00;101183.75;7384083;19;20401;-47
2022/04/20 02:49:59;;;;;;;13.33;4.93;;;;;;;3.53;100.00;101181.34;7390084;19;20434;-46
2022/04/20 02:52:31;;;;;;;8.50;4.70;;;;;;;3.61;100.00;101181.16;7386836;19;20498;-45
2022/04/20 02:55:01;;;;;;;9.30;4.37;;;;;;;3.56;100.00;101181.56;7395155;19;21091;-47
2022/04/20 02:57:30;;;;;;;6.87;4.47;;;;;;;3.45;100.00;101188.41;7372005;19;20412;-45
2022/04/20 03:00:00;;;;;;;9.33;4.83;;;;;;;3.53;100.00;101181.34;7389472;19;20402;-44
2022/04/20 03:02:29;;;;;;;11.30;5.00;;;;;;;3.52;100.00;101183.00;7384654;19;20490;-45
2022/04/20 03:04:59;;;;;;;15.87;5.43;;;;;;;3.54;100.00;101172.91;7391690;19;20392;-44
2022/04/20 03:07:28;;;;;;;16.33;6.17;;;;;;;3.39;100.00;101176.06;7385509;19;20394;-44
2022/04/20 03:10:00;;;;;;;7.83;4.40;;;;;;;3.38;100.00;101185.38;7388947;19;20399;-43
2022/04/20 03:12:30;;;;;;;8.67;4.97;;;;;;;3.43;100.00;101180.63;7386533;19;20414;-44
2022/04/20 03:14:59;;;;;;;8.03;4.50;;;;;;;3.44;100.00;101173.88;7398718;19;20394;-45
2022/04/20 03:17:29;;;;;;;11.03;5.00;;;;;;;3.40;100.00;101182.03;7392307;19;20383;-45
2022/04/20 03:19:58;;;;;;;11.47;5.20;;;;;;;3.48;100.00;101176.75;7394313;19;20489;-44
2022/04/20 03:22:28;;;;;;;9.93;4.67;;;;;;;3.36;100.00;101176.72;7393167;19;20390;-47
2022/04/20 03:24:57;;;;;;;8.13;5.20;;;;;;;3.33;100.00;101184.13;7398558;19;20894;-46
2022/04/20 03:27:29;;;;;;;9.33;4.83;;;;;;;3.21;100.00;101178.97;7375632;19;20402;-45
2022/04/20 03:29:59;;;;;;;10.97;4.90;;;;;;;3.22;100.00;101170.53;7395434;19;20429;-47
2022/04/20 03:32:28;;;;;;;8.17;4.13;;;;;;;3.14;100.00;101183.44;7392083;19;20423;-46
2022/04/20 03:34:58;;;;;;;8.60;5.70;;;;;;;3.06;100.00;101178.63;7398277;19;20371;-46
2022/04/20 03:37:28;;;;;;;8.80;4.20;;;;;;;3.00;100.00;101177.25;7392379;19;20415;-45
2022/04/20 03:39:59;;;;;;;8.00;5.13;;;;;;;2.88;100.00;101177.19;7395284;19;20487;-44
2022/04/20 03:42:31;;;;;;;9.60;3.80;;;;;;;2.91;100.00;101173.22;7392496;19;20382;-45
2022/04/20 03:45:01;;;;;;;10.03;4.70;;;;;;;2.90;100.00;101176.53;7397899;19;21037;-46
2022/04/20 03:47:30;;;;;;;10.70;5.87;;;;;;;2.81;100.00;101174.13;7390319;19;20407;-46
2022/04/20 03:50:00;;;;;;;10.00;5.47;;;;;;;2.89;100.00;101174.75;7394677;19;20438;-44
2022/04/20 03:52:30;;;;;;;9.60;5.50;;;;;;;2.87;100.00;101175.41;7390416;19;20401;-49
2022/04/20 03:54:59;;;;;;;10.93;5.53;;;;;;;2.81;100.00;101171.59;7397066;19;20371;-45
2022/04/20 03:57:31;;;;;;;13.63;5.87;;;;;;;2.87;100.00;101172.84;7375630;19;20402;-47
2022/04/20 04:00:01;;;;;;;11.80;5.83;;;;;;;2.84;100.00;101174.38;7395003;19;20398;-44
2022/04/20 04:02:30;;;;;;;10.00;5.30;;;;;;;2.81;100.00;101176.69;7393296;19;20443;-49
2022/04/20 04:05:00;;;;;;;11.10;5.90;;;;;;;2.84;100.00;101171.81;7397159;19;20374;-45
2022/04/20 04:07:29;;;;;;;19.60;10.20;;;;;;;2.97;100.00;101165.16;7391822;19;20379;-48
2022/04/20 04:09:59;;;;;;;8.40;4.90;;;;;;;2.88;100.00;101179.72;7394751;19;20420;-44
2022/04/20 04:12:28;;;;;;;16.50;7.37;;;;;;;2.86;100.00;101174.50;7391065;19;20482;-43
2022/04/20 04:15:00;;;;;;;7.53;4.33;;;;;;;2.87;100.00;101180.50;7396221;19;20387;-45
2022/04/20 04:17:30;;;;;;;8.60;4.70;;;;;;;2.87;100.00;101183.91;7361802;19;20398;-44
2022/04/20 04:19:59;;;;;;;7.60;4.03;;;;;;;2.84;100.00;101192.22;7394637;19;20936;-45
2022/04/20 04:22:29;;;;;;;7.43;4.03;;;;;;;2.91;100.00;101180.84;7388336;19;20490;-45
2022/04/20 04:24:59;;;;;;;10.13;4.70;;;;;;;3.09;100.00;101183.97;7395476;19;20387;-43
2022/04/20 04:27:28;;;;;;;9.50;4.00;;;;;;;3.16;100.00;101184.44;7381674;19;20773;-46
2022/04/20 04:30:01;;;;;;;12.30;5.53;;;;;;;3.17;100.00;101199.00;7396731;19;20407;-43
2022/04/20 04:32:31;;;;;;;12.70;4.60;;;;;;;3.20;100.00;101196.69;7388161;19;20924;-48
2022/04/20 04:35:01;;;;;;;6.77;4.20;;;;;;;3.21;100.00;101193.34;7395140;19;20377;-44
2022/04/20 04:37:30;;;;;;;8.67;4.97;;;;;;;3.34;100.00;101191.00;7388816;19;20399;-47
2022/04/20 04:40:00;;;;;;;8.17;4.43;;;;;;;3.40;100.00;101195.69;7394155;19;20403;-44
2022/04/20 04:42:29;;;;;;;10.40;4.27;;;;;;;3.51;100.00;101204.19;7389248;19;20390;-44
2022/04/20 04:50:37;;;;;;;8.23;4.60;;;;;;;3.62;100.00;101227.97;7389450;19;20411;-48
2022/04/20 04:53:07;;;;;;;7.87;4.20;;;;;;;3.62;100.00;101231.41;7391043;19;20437;-45
2022/04/20 04:55:36;;;;;;;10.83;5.03;;;;;;;3.75;100.00;101237.47;7395446;19;20390;-45
2022/04/20 04:58:06;;;;;;;121.33;51.37;;;;;;;4.00;100.00;101229.16;7368647;19;20409;-46
2022/04/20 05:00:38;;;;;;;73.50;32.70;;;;;;;4.21;100.00;101226.41;7392838;19;20414;-44
2022/04/20 05:03:10;;;;;;;35.37;16.30;;;;;;;4.29;100.00;101235.53;7390632;19;20429;-48
2022/04/20 05:05:41;;;;;;;24.70;10.60;;;;;;;4.43;100.00;101245.16;7395232;19;20413;-45
2022/04/20 05:08:10;;;;;;;15.60;8.03;;;;;;;4.54;100.00;101253.59;7385903;19;20771;-43
2022/04/20 05:10:40;;;;;;;16.83;7.07;;;;;;;4.68;100.00;101257.16;7391453;19;20425;-46
2022/04/20 05:13:09;;;;;;;11.03;6.07;;;;;;;4.66;100.00;101261.28;7388894;19;20394;-43
2022/04/20 05:15:42;;;;;;;13.60;4.80;;;;;;;4.64;100.00;101275.63;7394479;19;20390;-44
2022/04/20 05:18:11;;;;;;;14.83;7.50;;;;;;;4.91;100.00;101277.56;7386223;19;20953;-47
2022/04/20 05:20:40;;;;;;;10.80;4.80;;;;;;;4.82;100.00;101288.00;7392097;19;20426;-45
2022/04/20 05:23:10;;;;;;;12.20;5.50;;;;;;;4.78;100.00;101298.75;7388638;19;20422;-47
2022/04/20 05:25:40;;;;;;;9.87;4.50;;;;;;;4.81;100.00;101309.19;7394581;19;20392;-46
2022/04/20 05:28:10;;;;;;;21.00;10.30;;;;;;;4.94;100.00;101300.78;7367930;19;20418;-45
2022/04/20 05:30:42;;;;;;;9.50;4.67;;;;;;;4.89;100.00;101318.34;7391922;19;20931;-48
2022/04/20 05:33:12;;;;;;;11.90;6.30;;;;;;;4.97;100.00;101327.47;7384939;19;20762;-44
2022/04/20 05:35:41;;;;;;;7.40;4.43;;;;;;;5.11;100.00;101336.16;7395582;19;20395;-43
2022/04/20 05:43:37;;;;;;;12.93;5.30;;;;;;;5.55;100.00;101344.38;7390591;19;20378;-44
2022/04/20 05:46:09;;;;;;;12.87;5.20;;;;;;;5.75;100.00;101357.72;7388334;19;20363;-44
2022/04/20 05:48:39;;;;;;;9.93;4.70;;;;;;;5.74;100.00;101361.06;7392008;19;20402;-44
2022/04/20 05:51:09;;;;;;;11.20;5.47;;;;;;;5.71;100.00;101371.97;7386117;19;20380;-45
2022/04/20 05:53:39;;;;;;;11.10;5.30;;;;;;;5.83;100.00;101377.06;7393108;19;20388;-46
2022/04/20 05:56:08;;;;;;;8.97;4.83;;;;;;;5.84;100.00;101385.66;7376601;19;20817;-48
2022/04/20 05:58:38;;;;;;;11.53;5.00;;;;;;;5.76;100.00;101388.56;7391869;19;20410;-49
2022/04/20 06:01:10;;;;;;;9.60;5.07;;;;;;;5.93;100.00;101387.19;7387136;19;20388;-47
2022/04/20 06:03:40;;;;;;;8.80;4.43;;;;;;;6.05;100.00;101384.63;7392250;19;20409;-47
2022/04/20 06:06:09;;;;;;;8.53;4.57;;;;;;;6.14;100.00;101388.59;7388111;19;20407;-44
2022/04/20 06:08:39;;;;;;;11.57;4.93;;;;;;;6.14;100.00;101383.47;7391502;19;20392;-45
2022/04/20 06:11:08;;;;;;;10.53;5.47;;;;;;;6.05;100.00;101399.13;7385703;19;20384;-46
2022/04/20 06:13:38;;;;;;;9.23;4.83;;;;;;;5.97;100.00;101400.19;7392848;19;20452;-44
2022/04/20 06:16:10;;;;;;;8.43;4.77;;;;;;;6.00;100.00;101400.44;7383797;19;20379;-45
2022/04/20 06:18:40;;;;;;;13.97;5.10;;;;;;;5.92;100.00;101402.44;7390888;19;20465;-45
2022/04/20 06:21:10;;;;;;;8.67;4.50;;;;;;;5.91;100.00;101405.78;7385850;19;21047;-46
2022/04/20 06:23:39;;;;;;;9.63;4.57;;;;;;;5.92;100.00;101394.75;7391995;19;20477;-46
2022/04/20 06:26:09;;;;;;;8.67;4.67;;;;;;;6.04;100.00;101392.19;7370598;19;20415;-45
2022/04/20 06:28:38;;;;;;;14.27;6.70;;;;;;;6.16;100.00;101384.50;7391405;19;20400;-47
2022/04/20 06:31:10;;;;;;;8.30;4.67;;;;;;;6.23;100.00;101379.00;7383763;19;20388;-46
2022/04/20 06:33:40;;;;;;;10.57;5.00;;;;;;;6.32;100.00;101383.88;7392626;19;20405;-45
2022/04/20 06:36:09;;;;;;;11.70;4.93;;;;;;;6.35;100.00;101389.22;7386498;19;20439;-43
2022/04/20 06:38:39;;;;;;;12.30;6.50;;;;;;;6.44;100.00;101376.13;7394754;19;20432;-48
2022/04/20 06:41:08;;;;;;;11.77;5.53;;;;;;;6.58;100.00;101383.13;7386402;19;20484;-43
2022/04/20 06:43:38;;;;;;;16.40;6.97;;;;;;;6.64;100.00;101381.72;7392576;19;20402;-50
2022/04/20 06:46:10;;;;;;;10.50;5.50;;;;;;;6.77;100.00;101383.47;7386765;19;20387;-47
2022/04/20 06:48:40;;;;;;;12.07;6.60;;;;;;;6.88;100.00;101385.94;7398324;19;20401;-47
2022/04/20 06:51:09;;;;;;;9.00;5.27;;;;;;;6.91;100.00;101387.84;7391530;19;20428;-43
2022/04/20 06:59:12;;;;;;;7.40;3.93;;;;;;;7.26;100.00;101399.56;7395954;19;20430;-46
2022/04/20 07:01:44;;;;;;;6.77;4.00;;;;;;;7.35;100.00;101406.06;7390515;19;20409;-47
2022/04/20 07:04:13;;;;;;;9.40;5.10;;;;;;;7.39;100.00;101395.22;7397143;19;20390;-48
2022/04/20 07:06:43;;;;;;;16.87;6.43;;;;;;;7.47;100.00;101395.69;7392569;19;20945;-49
2022/04/20 07:09:12;;;;;;;23.03;9.60;;;;;;;7.58;100.00;101397.28;7396849;19;20421;-47
2022/04/20 07:11:42;;;;;;;6.87;3.30;;;;;;;7.67;100.00;101405.59;7390368;19;20430;-48
2022/04/20 07:14:12;;;;;;;9.30;3.83;;;;;;;7.75;100.00;101412.91;7400997;19;20430;-45
2022/04/20 07:16:44;;;;;;;22.60;9.20;;;;;;;7.84;100.00;101413.47;7390362;19;20446;-47
2022/04/20 07:19:13;;;;;;;7.40;3.90;;;;;;;7.92;100.00;101421.66;7401202;19;20935;-49
2022/04/20 07:21:43;;;;;;;10.53;5.10;;;;;;;8.02;100.00;101420.56;7392994;19;20486;-45
2022/04/20 07:24:12;;;;;;;9.30;4.60;;;;;;;8.17;100.00;101420.63;7398308;19;20391;-46
2022/04/20 07:26:42;;;;;;;11.47;5.87;;;;;;;8.21;100.00;101428.63;7385279;19;20421;-47
2022/04/20 07:29:11;;;;;;;37.83;14.13;;;;;;;8.30;100.00;101436.03;7395335;19;20431;-45
2022/04/20 07:31:44;;;;;;;9.20;4.40;;;;;;;8.43;100.00;101436.78;7363023;19;20427;-45
2022/04/20 07:34:14;;;;;;;26.43;7.83;;;;;;;8.47;100.00;101444.78;7398924;19;20403;-45
2022/04/20 07:36:43;;;;;;;19.63;8.43;;;;;;;8.51;100.00;101453.56;7386048;19;20395;-45
2022/04/20 07:39:13;;;;;;;22.60;7.13;;;;;;;8.58;100.00;101448.06;7396095;19;20412;-44
2022/04/20 07:41:42;;;;;;;6.97;3.60;;;;;;;8.69;100.00;101448.69;7393529;19;20451;-48
2022/04/20 07:44:12;;;;;;;7.90;3.40;;;;;;;8.75;100.00;101451.66;7397061;19;20742;-44
2022/04/20 07:46:44;;;;;;;19.23;7.30;;;;;;;8.80;100.00;101448.44;7386731;19;20419;-46
2022/04/20 07:51:55;;;;;;;10.97;4.60;;;;;;;8.94;100.00;101457.91;7392500;19;20433;-48
2022/04/20 07:54:25;;;;;;;5.80;3.03;;;;;;;9.07;100.00;101448.34;7397482;19;20459;-45
2022/04/20 07:56:54;;;;;;;12.03;4.30;;;;;;;9.18;100.00;101447.28;7390279;19;20507;-46
2022/04/20 07:59:24;;;;;;;15.20;6.00;;;;;;;9.24;100.00;101447.63;7393527;19;20420;-49
2022/04/20 08:01:56;;;;;;;13.60;5.87;;;;;;;9.24;100.00;101450.22;7369618;19;20391;-46
2022/04/20 08:04:26;;;;;;;6.90;4.20;;;;;;;9.25;100.00;101449.41;7396157;19;20427;-44
2022/04/20 08:06:55;;;;;;;9.00;3.93;;;;;;;9.38;100.00;101458.72;7387640;19;20407;-44
2022/04/20 08:09:26;;;;;;;5.83;3.07;;;;;;;9.59;100.00;101451.34;7394129;19;20411;-48
2022/04/20 08:11:55;;;;;;;6.23;3.00;;;;;;;9.71;100.00;101456.28;7356234;19;20415;-45
2022/04/20 08:14:25;;;;;;;7.33;3.07;;;;;;;9.76;100.00;101464.31;7395764;19;20384;-45
2022/04/20 08:16:57;;;;;;;6.30;3.30;;;;;;;9.81;100.00;101462.88;7389351;19;20429;-44
2022/04/20 08:19:27;;;;;;;4.47;2.67;;;;;;;9.84;100.00;101455.28;7394335;19;20408;-46
2022/04/20 08:21:56;;;;;;;18.03;5.90;;;;;;;9.91;100.00;101460.78;7389787;19;20419;-47
2022/04/20 08:24:26;;;;;;;7.40;3.20;;;;;;;10.00;100.00;101457.03;7396036;19;20392;-46
2022/04/20 08:26:55;;;;;;;8.00;3.40;;;;;;;10.16;100.00;101459.56;7390524;19;20410;-47
2022/04/20 08:29:25;;;;;;;8.43;4.17;;;;;;;10.29;100.00;101451.69;7392720;19;20423;-47
2022/04/20 08:31:57;;;;;;;9.90;4.77;;;;;;;10.44;100.00;101458.50;7376567;19;20775;-47
2022/04/20 08:34:26;;;;;;;9.27;3.00;;;;;;;10.45;100.00;101457.72;7395905;19;20380;-46
2022/04/20 08:37:15;;;;;;;8.57;4.10;;;;;;;10.48;100.00;101460.47;7360772;19;20422;-46
2022/04/20 08:39:45;;;;;;;7.60;3.00;;;;;;;10.63;100.00;101465.56;7393680;19;20418;-46
2022/04/20 08:42:14;;;;;;;8.50;3.40;;;;;;;10.64;100.00;101465.63;7390111;19;20875;-44
2022/04/20 08:44:47;;;;;;;8.57;4.90;;;;;;;10.74;100.00;101450.63;7394563;19;20402;-46
2022/04/20 08:47:23;;;;;;;12.23;3.87;;;;;;;10.94;100.00;101452.53;7387400;19;20415;-44
2022/04/20 08:49:53;;;;;;;6.43;3.13;;;;;;;10.82;100.00;101451.03;7393365;19;20411;-46
2022/04/20 08:55:11;;;;;;;10.30;5.23;;;;;;;11.01;100.00;101452.84;7394373;19;20387;-45
2022/04/20 08:57:42;;;;;;;7.57;3.77;;;;;;;10.93;100.00;101458.50;7388744;19;20419;-46
2022/04/20 09:00:13;;;;;;;7.23;3.93;;;;;;;11.05;100.00;101454.78;7393371;19;20412;-47
2022/04/20 09:02:47;;;;;;;10.37;5.77;;;;;;;11.04;100.00;101447.84;7388138;19;20969;-47
2022/04/20 09:05:17;;;;;;;8.73;4.47;;;;;;;11.00;100.00;101445.91;7394426;19;20383;-45
2022/04/20 09:07:47;;;;;;;7.53;3.60;;;;;;;10.87;100.00;101453.03;7387161;19;20431;-47
2022/04/20 09:10:16;;;;;;;13.90;6.00;;;;;;;10.89;100.00;101446.25;7393099;19;20768;-45
2022/04/20 09:12:47;;;;;;;9.23;4.43;;;;;;;11.03;100.00;101448.66;7385536;19;21252;-47
2022/04/20 09:15:31;;;;;;;11.00;6.00;;;;;;;11.13;100.00;101442.28;7394439;19;20387;-51
2022/04/20 09:18:05;;;;;;;10.43;5.10;;;;;;;11.41;100.00;101438.47;7387515;19;20436;-45
2022/04/20 09:20:35;;;;;;;5.20;2.93;;;;;;;11.52;100.00;101433.81;7392697;19;20946;-46
2022/04/20 09:23:07;;;;;;;6.33;3.40;;;;;;;11.40;100.00;101439.28;7393193;19;20902;-51
2022/04/20 09:25:49;;;;;;;5.77;2.90;;;;;;;11.19;100.00;101430.53;7397666;19;20395;-44
2022/04/20 09:28:20;;;;;;;10.87;4.00;;;;;;;11.16;100.00;101434.66;7393369;19;20372;-51
2022/04/20 09:30:54;;;;;;;7.23;2.93;;;;;;;11.25;100.00;101426.50;7393565;19;20417;-45
2022/04/20 09:33:43;;;;;;;5.07;2.53;;;;;;;11.50;100.00;101432.88;7391641;19;20459;-45
2022/04/20 09:36:14;;;;;;;5.90;2.73;;;;;;;11.78;100.00;101434.22;7388373;19;20391;-45
2022/04/20 09:39:04;;;;;;;5.20;2.20;;;;;;;11.81;100.00;101432.66;7392604;19;20483;-44
2022/04/20 09:41:34;;;;;;;5.13;2.47;;;;;;;11.81;100.00;101431.75;7388489;19;20461;-47
2022/04/20 09:44:11;;;;;;;5.90;3.07;;;;;;;11.78;100.00;101436.78;7392771;19;20732;-47
2022/04/20 09:49:38;;;;;;;6.97;3.07;;;;;;;11.73;100.00;101436.56;7390582;19;20800;-49
2022/04/20 09:52:12;;;;;;;15.73;5.30;;;;;;;11.87;100.00;101432.94;7387401;19;20428;-47
2022/04/20 09:54:53;;;;;;;6.17;2.60;;;;;;;11.85;100.00;101425.94;7390169;19;20423;-46
2022/04/20 09:57:24;;;;;;;19.83;6.03;;;;;;;11.88;100.00;101426.06;7359086;19;20476;-49
2022/04/20 10:00:00;;;;;;;4.90;2.27;;;;;;;12.06;100.00;101415.75;7391007;19;20429;-48
2022/04/20 10:02:50;;;;;;;7.20;3.30;;;;;;;12.09;100.00;101422.72;7386988;19;20454;-46
2022/04/20 10:05:23;;;;;;;10.90;4.07;;;;;;;12.28;100.00;101415.03;7392839;19;20396;-53
2022/04/20 10:07:59;;;;;;;5.10;2.20;;;;;;;12.38;100.00;101415.41;7385238;19;20413;-46
2022/04/20 10:10:29;;;;;;;9.63;3.70;;;;;;;12.53;100.00;101405.75;7390646;19;20494;-47
2022/04/20 10:13:03;;;;;;;10.50;3.60;;;;;;;12.59;98.86;101417.19;7357853;19;20419;-47
2022/04/20 10:18:19;;;;;;;4.90;2.37;;;;;;;12.61;98.97;101410.38;7386823;19;20753;-46
2022/04/20 10:20:59;;;;;;;6.97;2.37;;;;;;;12.96;99.11;101411.00;7392628;19;20392;-50
2022/04/20 10:23:31;;;;;;;6.30;2.27;;;;;;;13.04;97.72;101413.94;7401090;19;20435;-47
2022/04/20 10:26:02;;;;;;;6.93;2.53;;;;;;;12.90;99.46;101410.75;7390898;19;20383;-45
2022/04/20 10:28:36;;;;;;;3.97;2.40;;;;;;;12.95;100.00;101414.41;7395567;19;20384;-49
2022/04/20 10:31:14;;;;;;;6.87;2.87;;;;;;;13.05;99.67;101418.28;7386290;19;20391;-49
2022/04/20 10:33:45;;;;;;;4.03;1.93;;;;;;;12.99;97.95;101411.16;7394515;19;20422;-45
2022/04/20 10:36:30;;;;;;;4.90;3.00;;;;;;;13.08;98.07;101410.66;7383019;19;20403;-46
2022/04/20 10:39:22;;;;;;;5.80;2.77;;;;;;;13.01;98.61;101398.25;7395516;19;20515;-47
2022/04/20 10:42:23;;;;;;;8.77;2.47;;;;;;;13.06;99.81;101401.91;7391157;19;20449;-45
2022/04/20 10:45:05;;;;;;;5.00;2.50;;;;;;;12.93;97.75;101403.13;7397498;19;20394;-47
2022/04/20 10:47:36;;;;;;;4.53;2.60;;;;;;;13.19;97.88;101392.97;7390119;19;20427;-46
2022/04/20 10:50:19;;;;;;;4.90;2.07;;;;;;;13.32;95.63;101399.50;7393682;19;20416;-46
2022/04/20 10:52:58;;;;;;;6.63;2.50;;;;;;;13.46;96.88;101395.81;7387456;19;20467;-46
2022/04/20 10:55:54;;;;;;;6.27;2.03;;;;;;;13.51;96.99;101398.59;7397169;19;20377;-47
2022/04/20 10:58:24;;;;;;;4.23;2.00;;;;;;;13.61;98.31;101382.59;7395521;19;20417;-46
2022/04/20 11:01:13;;;;;;;5.63;2.30;;;;;;;13.52;96.01;101386.53;7396135;19;20467;-48
2022/04/20 11:04:05;;;;;;;5.80;2.20;;;;;;;13.54;98.88;101380.56;7396361;19;20442;-50
2022/04/20 11:07:15;;;;;;;6.10;2.40;;;;;;;13.61;97.45;101381.69;7389885;19;20435;-50
2022/04/20 11:10:05;;;;;;;4.77;2.47;;;;;;;13.50;97.82;101378.69;7393934;19;20424;-48
2022/04/20 11:21:19;;;;;;;6.60;2.17;;;;;;;13.83;98.20;101379.91;7390493;19;20505;-50
2022/04/20 11:24:08;;;;;;;5.80;2.20;;;;;;;14.01;95.24;101382.34;7397555;19;20787;-47
2022/04/20 11:26:41;;;;;;;6.10;2.37;;;;;;;13.99;95.48;101373.59;7388208;19;20958;-50
2022/04/20 11:29:14;;;;;;;4.40;1.67;;;;;;;13.87;94.57;101374.94;7396025;19;20412;-48
2022/04/20 11:31:47;;;;;;;9.40;2.43;;;;;;;13.99;94.83;101373.59;7389729;19;21005;-46
2022/04/20 11:34:19;;;;;;;4.30;2.23;;;;;;;13.85;93.20;101370.50;7397276;19;20942;-47
2022/04/20 11:36:51;;;;;;;6.60;1.83;;;;;;;13.94;94.64;101381.22;7370898;19;20407;-46
2022/04/20 11:39:22;;;;;;;4.73;1.93;;;;;;;14.08;94.51;101373.06;7395271;19;20475;-48
2022/04/20 11:41:56;;;;;;;3.77;2.00;;;;;;;14.17;92.59;101363.91;7391641;19;20419;-45
2022/04/20 11:44:27;;;;;;;3.87;1.83;;;;;;;14.28;94.83;101366.00;7398035;19;20380;-46
2022/04/20 11:47:01;;;;;;;5.00;2.10;;;;;;;14.15;93.07;101368.16;7391478;19;20415;-47
2022/04/20 11:49:35;;;;;;;6.57;2.20;;;;;;;14.18;92.77;101357.91;7395271;19;20751;-49
2022/04/20 11:52:06;;;;;;;6.60;3.47;;;;;;;14.12;93.38;101359.38;7390461;19;20445;-45
2022/04/20 11:54:38;;;;;;;4.60;2.17;;;;;;;14.09;92.42;101348.91;7395258;19;20392;-47
2022/04/20 11:57:11;;;;;;;8.23;2.40;;;;;;;14.29;93.94;101353.09;7389469;19;20646;-50
2022/04/20 11:59:45;;;;;;;4.40;1.80;;;;;;;14.35;89.70;101336.00;7395162;19;20410;-47
2022/04/20 12:02:16;;;;;;;5.00;2.40;;;;;;;14.48;90.66;101342.47;7368210;19;20763;-48
2022/04/20 12:04:46;;;;;;;8.73;2.63;;;;;;;14.58;90.93;101331.59;7396949;19;20740;-48
2022/04/20 12:07:17;;;;;;;4.97;2.00;;;;;;;14.32;91.36;101341.94;7388217;19;20414;-47
2022/04/20 12:09:53;;;;;;;3.90;2.13;;;;;;;14.36;88.78;101340.34;7394810;19;20429;-48
2022/04/20 12:12:25;;;;;;;5.83;1.90;;;;;;;14.65;89.86;101343.06;7367810;19;20483;-45
2022/04/20 12:15:07;;;;;;;10.03;1.87;;;;;;;14.88;88.50;101337.78;7393517;19;20391;-48
2022/04/20 12:17:37;;;;;;;5.30;2.03;;;;;;;14.88;87.64;101340.41;7387133;19;20973;-48
2022/04/20 12:20:08;;;;;;;4.80;2.07;;;;;;;14.67;88.17;101342.28;7394792;19;20410;-47